createdAt,value
2023-02-06T00:00:34.904Z,12.27
2023-02-06T00:03:01.541Z,10.02
2023-02-06T00:05:28.143Z,17.17
2023-02-06T00:07:55.060Z,9.02
2023-02-06T00:10:21.855Z,11.80
2023-02-06T00:12:48.451Z,11.63
2023-02-06T00:15:15.141Z,10.95
2023-02-06T00:17:41.783Z,11.00
2023-02-06T00:20:08.994Z,10.77
2023-02-06T00:22:35.623Z,13.95
2023-02-06T00:25:02.419Z,11.23
2023-02-06T00:27:28.982Z,8.45
2023-02-06T00:29:55.587Z,9.85
2023-02-06T00:32:22.233Z,9.15
2023-02-06T00:34:49.003Z,10.80
2023-02-06T00:37:17.322Z,10.63
2023-02-06T00:39:43.943Z,9.68
2023-02-06T00:42:10.557Z,10.02
2023-02-06T00:44:37.151Z,11.23
2023-02-06T00:47:03.744Z,11.10
2023-02-06T00:49:30.336Z,11.05
2023-02-06T00:51:56.912Z,10.70
2023-02-06T00:54:23.555Z,11.45
2023-02-06T00:56:50.177Z,10.40
2023-02-06T00:59:16.780Z,11.02
2023-02-06T01:01:43.426Z,14.00
2023-02-06T01:04:10.039Z,11.05
2023-02-06T01:06:36.660Z,11.15
2023-02-06T01:09:03.425Z,9.48
2023-02-06T01:11:29.991Z,12.93
2023-02-06T01:13:56.594Z,10.05
2023-02-06T01:16:24.099Z,14.68
2023-02-06T01:18:50.889Z,11.15
2023-02-06T01:21:20.401Z,12.50
2023-02-06T01:23:48.962Z,11.48
2023-02-06T01:26:17.779Z,10.80
2023-02-06T01:28:45.405Z,10.90
2023-02-06T01:31:13.923Z,10.85
2023-02-06T01:33:40.581Z,10.93
2023-02-06T01:36:07.563Z,10.85
2023-02-06T01:38:34.144Z,10.40
2023-02-06T01:41:00.980Z,10.50
2023-02-06T01:43:29.333Z,11.43
2023-02-06T01:45:58.464Z,11.32
2023-02-06T01:48:35.345Z,9.95
2023-02-06T01:51:02.379Z,11.25
2023-02-06T01:53:28.972Z,11.07
2023-02-06T01:55:55.569Z,9.32
2023-02-06T01:58:43.607Z,11.35
2023-02-06T02:01:10.432Z,10.55
2023-02-06T02:03:38.148Z,9.63
2023-02-06T02:06:10.135Z,9.52
2023-02-06T02:08:42.063Z,12.93
2023-02-06T02:11:10.202Z,10.80
2023-02-06T02:13:38.155Z,10.63
2023-02-06T02:16:32.738Z,11.20
2023-02-06T02:22:09.000Z,10.98
2023-02-06T02:25:01.994Z,13.95
2023-02-06T02:30:58.963Z,12.75
2023-02-06T02:34:05.431Z,11.85
2023-02-06T02:36:40.498Z,10.60
2023-02-06T02:39:17.850Z,15.30
2023-02-06T02:42:09.246Z,15.68
2023-02-06T02:44:43.710Z,15.60
2023-02-06T02:47:11.183Z,12.85
2023-02-06T02:49:37.810Z,13.55
2023-02-06T02:52:04.531Z,13.32
2023-02-06T02:54:31.148Z,13.82
2023-02-06T02:57:01.574Z,13.70
2023-02-06T02:59:31.126Z,12.60
2023-02-06T03:02:30.621Z,12.13
2023-02-06T03:04:59.891Z,14.15
2023-02-06T03:07:34.843Z,14.13
2023-02-06T03:10:10.789Z,14.18
2023-02-06T03:12:55.981Z,12.57
2023-02-06T03:16:02.489Z,16.13
2023-02-06T03:18:37.692Z,13.57
2023-02-06T03:21:04.847Z,14.70
2023-02-06T03:23:33.231Z,13.93
2023-02-06T03:26:01.208Z,12.98
2023-02-06T03:28:31.516Z,14.32
2023-02-06T03:30:58.858Z,17.20
2023-02-06T03:33:32.366Z,13.00
2023-02-06T03:35:59.305Z,11.07
2023-02-06T03:38:26.619Z,12.75
2023-02-06T03:40:53.318Z,15.23
2023-02-06T03:43:20.452Z,15.48
2023-02-06T03:45:49.315Z,13.40
2023-02-06T03:48:19.166Z,13.85
2023-02-06T03:50:46.499Z,11.95
2023-02-06T03:53:13.146Z,13.30
2023-02-06T03:55:39.829Z,13.77
2023-02-06T03:58:09.441Z,12.30
2023-02-06T04:00:36.148Z,13.60
2023-02-06T04:03:02.748Z,12.15
2023-02-06T04:05:29.346Z,11.63
2023-02-06T04:07:56.705Z,12.93
2023-02-06T04:10:26.115Z,14.90
2023-02-06T04:12:53.229Z,13.13
2023-02-06T04:15:19.905Z,13.93
2023-02-06T04:17:59.182Z,13.00
2023-02-06T04:20:26.964Z,14.48
2023-02-06T04:22:53.648Z,13.25
2023-02-06T04:25:20.310Z,16.13
2023-02-06T04:27:47.010Z,15.40
2023-02-06T04:30:13.857Z,18.08
2023-02-06T04:32:40.476Z,18.88
2023-02-06T04:35:07.361Z,17.88
2023-02-06T04:37:33.959Z,17.20
2023-02-06T04:40:00.640Z,19.08
2023-02-06T04:42:27.462Z,18.33
2023-02-06T04:44:54.091Z,16.02
2023-02-06T04:47:20.793Z,16.45
2023-02-06T04:49:47.433Z,16.90
2023-02-06T04:52:14.012Z,15.82
2023-02-06T04:54:40.693Z,16.20
2023-02-06T04:57:07.292Z,15.35
2023-02-06T04:59:33.894Z,16.23
2023-02-06T05:02:00.534Z,16.55
2023-02-06T05:04:27.204Z,21.33
2023-02-06T05:06:53.795Z,16.38
2023-02-06T05:09:20.358Z,15.90
2023-02-06T05:11:47.083Z,14.43
2023-02-06T05:14:13.673Z,14.27
2023-02-06T05:16:40.267Z,17.95
2023-02-06T05:19:06.837Z,16.05
2023-02-06T05:21:33.460Z,15.95
2023-02-06T05:24:00.115Z,17.25
2023-02-06T05:26:26.740Z,16.58
2023-02-06T05:28:53.440Z,17.73
2023-02-06T05:31:20.433Z,18.83
2023-02-06T05:33:50.385Z,19.15
2023-02-06T05:36:18.729Z,21.33
2023-02-06T05:38:45.469Z,22.67
2023-02-06T05:41:12.070Z,22.67
2023-02-06T05:43:38.667Z,23.38
2023-02-06T05:46:05.311Z,23.10
2023-02-06T05:48:34.446Z,22.23
2023-02-06T05:51:01.376Z,26.10
2023-02-06T05:53:28.073Z,21.50
2023-02-06T05:55:54.686Z,20.42
2023-02-06T05:58:21.302Z,23.75
2023-02-06T06:00:47.921Z,27.25
2023-02-06T06:03:14.539Z,25.67
2023-02-06T06:05:41.180Z,20.65
2023-02-06T06:08:07.825Z,24.15
2023-02-06T06:10:34.603Z,22.00
2023-02-06T06:13:01.300Z,22.63
2023-02-06T06:15:28.348Z,21.15
2023-02-06T06:17:55.149Z,25.25
2023-02-06T06:20:22.030Z,24.88
2023-02-06T06:22:48.666Z,26.88
2023-02-06T06:25:15.401Z,24.65
2023-02-06T06:27:42.112Z,19.38
2023-02-06T06:30:11.119Z,18.00
2023-02-06T06:32:37.744Z,15.57
2023-02-06T06:35:04.719Z,17.30
2023-02-06T06:37:31.971Z,14.70
2023-02-06T06:39:58.790Z,19.85
2023-02-06T06:42:25.474Z,19.42
2023-02-06T06:44:52.229Z,16.95
2023-02-06T06:47:18.886Z,16.98
2023-02-06T06:49:45.549Z,16.52
2023-02-06T06:52:24.028Z,19.85
2023-02-06T06:54:52.426Z,15.25
2023-02-06T06:57:19.845Z,16.30
2023-02-06T06:59:46.511Z,15.27
2023-02-06T07:02:13.278Z,15.63
2023-02-06T07:04:39.967Z,13.88
2023-02-06T07:07:07.142Z,19.40
2023-02-06T07:09:33.791Z,18.90
2023-02-06T07:12:00.410Z,19.50
2023-02-06T07:14:27.065Z,16.80
2023-02-06T07:16:53.715Z,17.23
2023-02-06T07:19:21.217Z,14.85
2023-02-06T07:21:47.841Z,16.70
2023-02-06T07:24:14.467Z,18.23
2023-02-06T07:26:41.542Z,16.48
2023-02-06T07:29:08.278Z,23.30
2023-02-06T07:31:34.909Z,16.80
2023-02-06T07:34:02.222Z,20.77
2023-02-06T07:36:28.935Z,14.60
2023-02-06T07:38:55.728Z,15.27
2023-02-06T07:41:22.321Z,19.80
2023-02-06T07:43:48.997Z,17.35
2023-02-06T07:46:15.739Z,17.55
2023-02-06T07:48:42.460Z,20.92
2023-02-06T07:51:09.284Z,21.40
2023-02-06T07:53:35.956Z,15.23
2023-02-06T07:56:02.664Z,19.52
2023-02-06T07:58:29.337Z,18.15
2023-02-06T08:00:56.159Z,20.17
2023-02-06T08:03:22.920Z,20.52
2023-02-06T08:05:50.079Z,15.52
2023-02-06T08:08:16.726Z,17.33
2023-02-06T08:10:43.507Z,18.90
2023-02-06T08:13:10.141Z,21.80
2023-02-06T08:15:36.974Z,24.15
2023-02-06T08:18:03.843Z,20.05
2023-02-06T08:20:30.758Z,22.13
2023-02-06T08:22:57.351Z,19.83
2023-02-06T08:25:24.792Z,18.23
2023-02-06T08:27:53.959Z,17.80
2023-02-06T08:30:21.483Z,18.10
2023-02-06T08:32:48.174Z,16.13
2023-02-06T08:35:14.839Z,17.60
2023-02-06T08:37:41.424Z,17.67
2023-02-06T08:40:08.744Z,15.70
2023-02-06T08:42:35.938Z,13.85
2023-02-06T08:45:02.697Z,15.60
2023-02-06T08:47:29.378Z,13.98
2023-02-06T08:49:55.997Z,13.70
2023-02-06T08:52:23.237Z,16.25
2023-02-06T08:54:51.590Z,11.40
2023-02-06T08:57:33.047Z,13.73
2023-02-06T08:59:59.695Z,12.50
2023-02-06T09:05:48.876Z,13.52
2023-02-06T09:08:17.406Z,12.52
2023-02-06T09:10:44.057Z,12.50
2023-02-06T09:13:10.657Z,10.38
2023-02-06T09:15:37.919Z,12.90
2023-02-06T09:18:04.809Z,12.30
2023-02-06T09:20:31.437Z,11.38
2023-02-06T09:22:58.085Z,11.50
2023-02-06T09:25:24.772Z,9.65
2023-02-06T09:27:51.408Z,8.75
2023-02-06T09:30:18.154Z,11.75
2023-02-06T09:32:44.778Z,10.27
2023-02-06T09:35:11.454Z,8.23
2023-02-06T09:37:38.154Z,9.32
2023-02-06T09:40:05.114Z,17.50
2023-02-06T09:42:34.625Z,13.82
2023-02-06T09:45:10.262Z,7.97
2023-02-06T09:47:39.407Z,9.35
2023-02-06T09:50:28.281Z,9.60
2023-02-06T09:53:35.164Z,9.68
2023-02-06T09:56:14.834Z,8.80
2023-02-06T09:58:49.786Z,7.63
2023-02-06T10:01:26.196Z,9.93
2023-02-06T10:04:32.727Z,8.45
2023-02-06T10:07:22.913Z,7.70
2023-02-06T10:10:00.752Z,6.47
2023-02-06T10:12:42.950Z,14.73
2023-02-06T10:15:20.910Z,11.88
2023-02-06T10:17:59.480Z,8.88
2023-02-06T10:20:33.433Z,7.97
2023-02-06T10:23:26.804Z,7.97
2023-02-06T10:26:07.874Z,7.28
2023-02-06T10:28:35.317Z,9.15
2023-02-06T10:31:28.309Z,6.82
2023-02-06T10:37:08.488Z,12.50
2023-02-06T10:43:00.786Z,14.13
2023-02-06T10:45:38.616Z,6.30
2023-02-06T10:48:29.201Z,8.25
2023-02-06T10:51:00.516Z,8.27
2023-02-06T10:53:30.681Z,15.40
2023-02-06T10:56:00.527Z,14.20
2023-02-06T10:58:52.172Z,41.15
2023-02-06T11:01:25.983Z,18.23
2023-02-06T11:04:15.633Z,8.07
2023-02-06T11:06:42.489Z,10.77
2023-02-06T11:09:10.019Z,9.75
2023-02-06T11:11:38.871Z,14.65
2023-02-06T11:14:28.300Z,15.75
2023-02-06T11:16:55.238Z,8.10
2023-02-06T11:19:42.181Z,13.50
2023-02-06T11:24:59.534Z,9.05
2023-02-06T11:27:26.273Z,11.00
2023-02-06T11:29:53.859Z,7.82
2023-02-06T11:32:28.272Z,9.13
2023-02-06T11:34:57.469Z,6.82
2023-02-06T11:37:40.161Z,7.78
2023-02-06T11:42:40.665Z,11.68
2023-02-06T11:45:28.421Z,10.57
2023-02-06T11:47:55.192Z,8.35
2023-02-06T11:50:27.054Z,7.28
2023-02-06T11:52:59.420Z,8.57
2023-02-06T11:55:28.809Z,8.45
2023-02-06T12:00:57.855Z,10.05
2023-02-06T12:06:15.372Z,9.05
2023-02-06T12:08:50.933Z,9.68
2023-02-06T12:11:39.675Z,8.40
2023-02-06T12:16:48.198Z,10.63
2023-02-06T12:19:18.555Z,9.02
2023-02-06T12:21:48.814Z,15.20
2023-02-06T12:24:36.967Z,8.68
2023-02-06T12:27:09.875Z,10.05
2023-02-06T12:29:38.067Z,7.03
2023-02-06T12:32:09.879Z,10.43
2023-02-06T12:34:54.388Z,11.35
2023-02-06T12:37:31.793Z,9.05
2023-02-06T12:39:59.950Z,8.90
2023-02-06T12:42:38.589Z,10.23
2023-02-06T12:45:28.117Z,10.80
2023-02-06T12:47:58.911Z,8.32
2023-02-06T12:50:28.371Z,9.10
2023-02-06T12:53:16.540Z,15.70
2023-02-06T12:55:56.023Z,9.57
2023-02-06T12:58:25.784Z,15.73
2023-02-06T13:01:02.226Z,12.23
2023-02-06T13:03:31.239Z,11.57
2023-02-06T13:06:03.806Z,11.95
2023-02-06T13:08:41.124Z,10.18
2023-02-06T13:11:14.410Z,10.77
2023-02-06T13:13:41.748Z,9.40
2023-02-06T13:16:08.688Z,9.65
2023-02-06T13:21:29.547Z,12.35
2023-02-06T13:29:44.524Z,6.97
2023-02-06T13:32:18.543Z,12.68
2023-02-06T13:43:10.121Z,14.10
2023-02-06T13:46:00.883Z,14.02
2023-02-06T13:48:52.610Z,14.73
2023-02-06T13:51:45.397Z,13.65
2023-02-06T13:57:33.452Z,15.65
2023-02-06T14:00:02.723Z,13.57
2023-02-06T14:02:50.609Z,11.88
2023-02-06T14:05:20.638Z,14.43
2023-02-06T14:08:09.561Z,13.10
2023-02-06T14:10:53.575Z,14.82
2023-02-06T14:13:48.171Z,10.60
2023-02-06T14:16:54.735Z,13.02
2023-02-06T14:19:38.783Z,15.30
2023-02-06T14:22:45.365Z,14.20
2023-02-06T14:25:28.589Z,12.02
2023-02-06T14:28:20.000Z,15.15
2023-02-06T14:33:51.693Z,14.23
2023-02-06T14:36:58.380Z,18.48
2023-02-06T14:39:53.385Z,16.42
2023-02-06T14:42:28.431Z,12.05
2023-02-06T14:44:58.765Z,20.08
2023-02-06T14:47:29.472Z,13.18
2023-02-06T14:49:57.264Z,13.50
2023-02-06T14:52:26.767Z,10.90
2023-02-06T14:54:53.547Z,10.32
2023-02-06T14:57:29.816Z,11.70
2023-02-06T14:59:59.787Z,9.82
2023-02-06T15:02:29.237Z,8.80
2023-02-06T15:04:56.190Z,11.65
2023-02-06T15:07:30.322Z,11.38
2023-02-06T15:12:39.773Z,12.35
2023-02-06T15:15:24.682Z,9.07
2023-02-06T15:18:14.757Z,13.90
2023-02-06T15:20:42.502Z,11.10
2023-02-06T15:23:18.130Z,14.15
2023-02-06T15:26:08.466Z,10.35
2023-02-06T15:28:35.468Z,9.32
2023-02-06T15:31:02.328Z,8.95
2023-02-06T15:33:31.963Z,9.77
2023-02-06T15:35:59.891Z,10.90
2023-02-06T15:38:28.148Z,8.82
2023-02-06T15:40:58.355Z,12.63
2023-02-06T15:43:25.422Z,8.48
2023-02-06T15:45:54.891Z,9.25
2023-02-06T15:48:43.860Z,10.02
2023-02-06T15:51:20.709Z,9.77
2023-02-06T15:53:48.646Z,9.85
2023-02-06T15:56:23.324Z,12.02
2023-02-06T15:58:54.010Z,11.02
2023-02-06T16:01:20.716Z,12.05
2023-02-06T16:03:53.140Z,12.43
2023-02-06T16:06:19.748Z,13.85
2023-02-06T16:08:52.410Z,11.55
2023-02-06T16:11:38.967Z,10.43
2023-02-06T16:14:05.945Z,9.63
2023-02-06T16:16:32.701Z,12.48
2023-02-06T16:19:00.149Z,11.80
2023-02-06T16:21:29.153Z,14.07
2023-02-06T16:26:47.079Z,11.77
2023-02-06T16:29:31.601Z,13.93
2023-02-06T16:32:01.234Z,15.23
2023-02-06T16:34:32.653Z,13.70
2023-02-06T16:36:59.225Z,8.20
2023-02-06T16:39:25.872Z,12.23
2023-02-06T16:41:53.033Z,10.10
2023-02-06T16:44:20.046Z,10.95
2023-02-06T16:46:46.712Z,20.17
2023-02-06T16:49:19.182Z,10.55
2023-02-06T16:54:28.948Z,14.18
2023-02-06T16:56:56.255Z,14.55
2023-02-06T16:59:22.904Z,10.98
2023-02-06T17:01:49.618Z,10.73
2023-02-06T17:04:16.261Z,11.25
2023-02-06T17:06:42.963Z,15.68
2023-02-06T17:09:12.236Z,12.55
2023-02-06T17:11:39.056Z,9.73
2023-02-06T17:14:06.011Z,12.35
2023-02-06T17:16:33.629Z,11.73
2023-02-06T17:19:00.330Z,14.80
2023-02-06T17:21:29.641Z,15.38
2023-02-06T17:23:56.258Z,13.57
2023-02-06T17:26:23.192Z,12.18
2023-02-06T17:28:50.018Z,13.75
2023-02-06T17:31:16.926Z,12.95
2023-02-06T17:33:43.869Z,11.00
2023-02-06T17:36:14.830Z,11.57
2023-02-06T17:38:41.443Z,11.18
2023-02-06T17:41:08.158Z,13.00
2023-02-06T17:43:37.105Z,12.00
2023-02-06T17:46:05.163Z,15.95
2023-02-06T17:48:36.328Z,13.60
2023-02-06T17:51:04.610Z,13.98
2023-02-06T17:53:31.186Z,13.15
2023-02-06T17:55:57.941Z,15.05
2023-02-06T17:58:24.618Z,16.08
2023-02-06T18:00:51.367Z,17.17
2023-02-06T18:03:19.723Z,16.15
2023-02-06T18:05:47.136Z,18.42
2023-02-06T18:08:14.318Z,14.30
2023-02-06T18:10:41.000Z,12.75
2023-02-06T18:13:07.661Z,17.20
2023-02-06T18:15:34.300Z,13.20
2023-02-06T18:18:01.458Z,13.60
2023-02-06T18:20:28.185Z,14.50
2023-02-06T18:22:55.004Z,15.55
2023-02-06T18:25:21.819Z,18.15
2023-02-06T18:27:48.464Z,13.45
2023-02-06T18:30:15.624Z,12.85
2023-02-06T18:32:42.366Z,15.88
2023-02-06T18:35:09.413Z,12.88
2023-02-06T18:37:36.384Z,18.20
2023-02-06T18:40:03.585Z,21.40
2023-02-06T18:42:50.145Z,14.68
2023-02-06T18:45:18.084Z,17.13
2023-02-06T18:47:44.891Z,19.13
2023-02-06T18:50:12.009Z,14.40
2023-02-06T18:52:39.266Z,21.08
2023-02-06T18:55:08.013Z,16.13
2023-02-06T18:57:35.162Z,16.98
2023-02-06T19:00:02.283Z,13.90
2023-02-06T19:02:29.056Z,12.38
2023-02-06T19:04:58.065Z,13.63
2023-02-06T19:07:24.982Z,15.88
2023-02-06T19:09:56.631Z,14.13
2023-02-06T19:12:23.415Z,16.63
2023-02-06T19:14:50.028Z,16.08
2023-02-06T19:17:16.733Z,16.15
2023-02-06T19:19:43.531Z,14.73
2023-02-06T19:22:10.176Z,14.95
2023-02-06T19:24:36.933Z,15.73
2023-02-06T19:27:03.598Z,13.50
2023-02-06T19:29:36.312Z,13.98
2023-02-06T19:32:04.999Z,22.23
2023-02-06T19:34:34.059Z,17.15
2023-02-06T19:37:02.733Z,18.42
2023-02-06T19:39:33.797Z,17.90
2023-02-06T19:42:01.318Z,15.10
2023-02-06T19:44:29.017Z,13.80
2023-02-06T19:46:56.096Z,22.25
2023-02-06T19:49:22.971Z,17.27
2023-02-06T19:51:49.623Z,19.17
2023-02-06T19:54:16.332Z,15.82
2023-02-06T19:56:44.097Z,19.70
2023-02-06T19:59:17.989Z,18.00
2023-02-06T20:01:46.164Z,15.55
2023-02-06T20:04:13.049Z,15.90
2023-02-06T20:06:40.284Z,16.63
2023-02-06T20:09:06.940Z,24.95
2023-02-06T20:11:33.720Z,17.23
2023-02-06T20:14:00.525Z,18.88
2023-02-06T20:16:29.636Z,15.90
2023-02-06T20:18:56.377Z,18.02
2023-02-06T20:21:29.356Z,22.35
2023-02-06T20:23:57.237Z,20.70
2023-02-06T20:26:25.371Z,18.48
2023-02-06T20:28:52.321Z,20.55
2023-02-06T20:31:19.105Z,18.52
2023-02-06T20:33:46.097Z,19.92
2023-02-06T20:36:16.399Z,20.20
2023-02-06T20:38:43.179Z,19.50
2023-02-06T20:41:10.270Z,16.45
2023-02-06T20:43:37.230Z,24.73
2023-02-06T20:46:06.419Z,18.83
2023-02-06T20:48:34.549Z,15.68
2023-02-06T20:51:04.230Z,15.55
2023-02-06T20:53:31.102Z,24.25
2023-02-06T20:55:58.160Z,27.17
2023-02-06T20:58:25.857Z,26.83
2023-02-06T21:00:53.002Z,20.17
2023-02-06T21:03:19.717Z,23.10
2023-02-06T21:05:56.566Z,19.40
2023-02-06T21:08:23.996Z,17.25
2023-02-06T21:10:51.756Z,23.20
2023-02-06T21:13:18.873Z,23.90
2023-02-06T21:15:53.353Z,22.63
2023-02-06T21:18:20.496Z,17.08
2023-02-06T21:20:47.138Z,23.27
2023-02-06T21:23:13.928Z,19.17
2023-02-06T21:25:41.172Z,19.50
2023-02-06T21:28:07.910Z,20.65
2023-02-06T21:30:34.981Z,19.77
2023-02-06T21:33:01.679Z,20.60
2023-02-06T21:35:30.354Z,22.75
2023-02-06T21:37:56.969Z,28.48
2023-02-06T21:40:23.519Z,18.23
2023-02-06T21:42:50.133Z,20.67
2023-02-06T21:45:16.869Z,19.55
2023-02-06T21:47:43.459Z,23.25
2023-02-06T21:50:10.063Z,23.42
2023-02-06T21:52:37.492Z,25.30
2023-02-06T21:55:06.720Z,19.77
2023-02-06T21:57:34.274Z,22.38
2023-02-06T22:00:00.931Z,20.60
2023-02-06T22:02:27.557Z,19.65
2023-02-06T22:04:54.203Z,19.23
2023-02-06T22:07:21.012Z,15.48
2023-02-06T22:09:47.647Z,22.15
2023-02-06T22:12:14.532Z,21.58
2023-02-06T22:14:41.324Z,17.70
2023-02-06T22:17:07.896Z,19.55
2023-02-06T22:19:34.984Z,19.08
2023-02-06T22:22:02.464Z,19.83
2023-02-06T22:24:29.091Z,21.67
2023-02-06T22:26:55.721Z,19.52
2023-02-06T22:29:22.298Z,18.08
2023-02-06T22:31:48.910Z,19.33
2023-02-06T22:34:17.160Z,17.60
2023-02-06T22:36:44.729Z,19.13
2023-02-06T22:39:12.695Z,21.67
2023-02-06T22:41:40.939Z,19.38
2023-02-06T22:44:07.772Z,19.95
2023-02-06T22:46:36.019Z,22.52
2023-02-06T22:49:04.154Z,21.73
2023-02-06T22:51:30.885Z,21.58
2023-02-06T22:53:57.556Z,24.13
2023-02-06T22:56:27.488Z,21.80
2023-02-06T22:58:55.171Z,23.33
2023-02-06T23:01:23.651Z,26.88
2023-02-06T23:03:52.218Z,21.20
2023-02-06T23:06:18.943Z,28.75
2023-02-06T23:08:45.602Z,20.98
2023-02-06T23:11:12.363Z,24.92
2023-02-06T23:13:39.229Z,23.73
2023-02-06T23:16:06.117Z,22.80
2023-02-06T23:18:32.841Z,20.48
2023-02-06T23:21:02.316Z,30.52
2023-02-06T23:23:29.171Z,24.73
2023-02-06T23:25:55.915Z,24.38
2023-02-06T23:28:22.776Z,25.60
2023-02-06T23:30:49.524Z,22.63
2023-02-06T23:33:16.309Z,23.98
2023-02-06T23:35:43.012Z,20.55
2023-02-06T23:38:09.952Z,20.58
2023-02-06T23:40:36.666Z,21.45
2023-02-06T23:43:03.397Z,21.67
2023-02-06T23:45:30.620Z,24.88
2023-02-06T23:47:57.391Z,20.98
2023-02-06T23:50:24.467Z,23.17
2023-02-06T23:52:51.244Z,28.30
2023-02-06T23:55:18.136Z,18.98
2023-02-06T23:57:44.864Z,23.02
